KPQI/PQI METAR and TAF weather

Enter ICAO airport designator
Station Type Date Time Source
KPQI METAR 2022/01/25 03:56 UTC NOAA

KPQI 250356Z AUTO 00000KT 10SM OVC085 M21/M24 A2996 RMK AO2 SLP189 T12061239


Station Type Date Time Source
KPQI Decoded METAR 2022/01/25 03:56 UTC NOAA

Presque Isle, ME, United States (KPQI) 46-41N 068-03W 146M
Jan 24, 2022 - 10:56 PM EST / 2022.01.25 0356 UTC
Wind: Calm:0
Visibility: 10 mile(s):0
Sky conditions: overcast
Temperature: -5.1 F (-20.6 C)
Dew Point: -11.0 F (-23.9 C)
Relative Humidity: 74%
Pressure (altimeter): 29.96 in. Hg (1014 hPa)
ob: KPQI 250356Z AUTO 00000KT 10SM OVC085 M21/M24 A2996 RMK AO2 SLP189 T12061239
cycle: 4

Station Type Date Time Source
KPQI TAF 2022/01/24 18:24 UTC NOAA

TAF KPQI 241723Z 2418/2518 VRB05KT P6SM FEW250
FM250700 09002KT 6SM -SN BKN050
FM250800 00000KT 2SM -SN BKN040
FM251000 10003KT 1SM -SN OVC014
FM251200 09010KT 1 1/2SM -SN OVC025

Example: see airport list